メインページ
METAR-TAF:

METAR-TAF

空港 :

仁川国際空港, 大韓民国

緯度: 37-28N, 経度: 126-27E, 海抜: 7m

現時点の気象観測

当レポートは38分前の23:30(UTC)に作成
北東の風 2kt
気温 25°C
湿度 83%
気圧 1013 hPa
視程: 3500m
高度300ftの雲はほとんどない

METAR: RKSI 162330Z 04002KT 3500 BR FEW003 25/22 Q1013 NOSIG

時間: 09:08 (00:08 UTC)

予報

当レポートは1時間8分前の23:00(UTC)に作成
予報は17日の 00時(UTC)から 18日の 06時(UTC)まで有効
西/北西の風 6kt
視程: 7000m
高度1000ftの雲はほとんどない
高度3000ftの雲は散在している
17日の 18時(UTC)から 17日の 19時(UTC)まで徐々に
西の風 5kt
視程: 4200m
17日の 20時(UTC)から 17日の 22時(UTC)まで一時的に
視程: 0600m
高度200ftの千切れ雲あり
17日の 22時(UTC)から 17日の 23時(UTC)まで徐々に
西/北西の風 6kt
視程: 7000m

TAF: RKSI 162300Z 1700/1806 29006KT 7000 FEW010 SCT030 TX30/1706Z TN23/1721Z TX30/1805Z BECMG 1718/1719 26005KT 4200 BR TEMPO 1720/1722 0600 FG BKN002 BECMG 1722/1723 29006KT 7000 NSW

4,000以上の空港の気象観測と天気予報(METAR報とTAF報)

利用可能な観測所は地図上に黄色い丸と赤い丸で示す。

丸の上にカーソルを重ねると観測所名を参照できる。

次にクリックすると気象観測と天気予報を参照できる。

マップの切り替え:黒色「×」印の緑ボタンをクリックして拡大、「-」印の緑ボタンをクリックして縮小、緑色の三角印をクリックして隣りの地図に切り替え


METAR-TAF: